createdAt,value
2022-09-21T00:01:11.662Z,54.67
2022-09-21T00:03:39.716Z,55.23
2022-09-21T00:06:09.421Z,55.15
2022-09-21T00:08:36.595Z,55.09
2022-09-21T00:11:04.862Z,55.06
2022-09-21T00:13:34.527Z,55.16
2022-09-21T00:16:02.026Z,55.23
2022-09-21T00:18:28.987Z,55.51
2022-09-21T00:20:55.923Z,55.74
2022-09-21T00:23:23.950Z,56.02
2022-09-21T00:25:50.842Z,55.93
2022-09-21T00:28:17.697Z,55.67
2022-09-21T00:30:44.640Z,55.95
2022-09-21T00:33:11.506Z,56.03
2022-09-21T00:35:38.646Z,56.10
2022-09-21T00:38:06.279Z,55.73
2022-09-21T00:40:33.204Z,55.32
2022-09-21T00:43:17.319Z,55.23
2022-09-21T00:45:48.536Z,55.51
2022-09-21T00:48:15.709Z,55.96
2022-09-21T00:50:49.341Z,56.34
2022-09-21T00:53:16.567Z,56.63
2022-09-21T00:55:48.336Z,56.60
2022-09-21T00:58:18.963Z,56.64
2022-09-21T01:00:45.944Z,56.83
2022-09-21T01:03:13.605Z,56.72
2022-09-21T01:05:40.528Z,56.58
2022-09-21T01:08:12.501Z,56.69
2022-09-21T01:11:22.840Z,57.04
2022-09-21T01:13:52.795Z,56.91
2022-09-21T01:16:23.473Z,56.82
2022-09-21T01:19:02.335Z,56.73
2022-09-21T01:21:34.781Z,57.44
2022-09-21T01:24:36.533Z,58.17
2022-09-21T01:27:33.565Z,58.09
2022-09-21T01:30:04.820Z,57.74
2022-09-21T01:32:37.560Z,57.71
2022-09-21T01:35:15.982Z,57.52
2022-09-21T01:37:48.753Z,57.35
2022-09-21T01:40:38.975Z,57.16
2022-09-21T01:43:09.547Z,56.96
2022-09-21T01:45:41.127Z,57.21
2022-09-21T01:48:08.873Z,56.96
2022-09-21T01:50:41.591Z,56.85
2022-09-21T01:53:15.632Z,57.08
2022-09-21T01:55:53.918Z,57.16
2022-09-21T01:58:42.349Z,57.62
2022-09-21T02:01:13.041Z,57.84
2022-09-21T02:03:44.561Z,57.92
2022-09-21T02:06:11.792Z,57.58
2022-09-21T02:08:39.302Z,57.31
2022-09-21T02:11:07.170Z,57.86
2022-09-21T02:13:39.878Z,58.85
2022-09-21T02:16:44.432Z,58.38
2022-09-21T02:19:34.609Z,58.38
2022-09-21T02:22:20.203Z,58.54
2022-09-21T02:24:54.965Z,58.36
2022-09-21T02:27:30.833Z,58.08
2022-09-21T02:30:09.650Z,57.94
2022-09-21T02:32:59.379Z,58.17
2022-09-21T02:35:44.736Z,58.21
2022-09-21T02:38:49.729Z,58.19
2022-09-21T02:41:20.330Z,58.42
2022-09-21T02:43:59.024Z,58.36
2022-09-21T02:46:33.280Z,58.23
2022-09-21T02:49:09.326Z,58.25
2022-09-21T02:51:49.883Z,58.02
2022-09-21T02:54:25.422Z,58.03
2022-09-21T02:56:54.157Z,57.70
2022-09-21T02:59:24.319Z,57.54
2022-09-21T03:01:52.287Z,57.79
2022-09-21T03:04:19.730Z,58.26
2022-09-21T03:06:46.541Z,58.18
2022-09-21T03:09:13.622Z,58.75
2022-09-21T03:11:42.547Z,58.40
2022-09-21T03:14:09.829Z,58.51
2022-09-21T03:16:37.368Z,58.09
2022-09-21T03:19:05.269Z,58.19
2022-09-21T03:21:32.503Z,58.79
2022-09-21T03:23:59.364Z,59.03
2022-09-21T03:26:26.464Z,58.80
2022-09-21T03:28:56.284Z,58.79
2022-09-21T03:31:23.206Z,58.61
2022-09-21T03:33:50.221Z,58.61
2022-09-21T03:36:17.338Z,58.37
2022-09-21T03:38:44.561Z,58.38
2022-09-21T03:41:11.520Z,58.78
2022-09-21T03:43:38.395Z,58.46
2022-09-21T03:46:05.491Z,58.05
2022-09-21T03:48:32.855Z,58.06
2022-09-21T03:50:59.912Z,58.30
2022-09-21T03:53:26.779Z,58.84
2022-09-21T03:55:53.658Z,59.00
2022-09-21T03:58:20.778Z,58.88
2022-09-21T04:00:47.665Z,59.04
2022-09-21T04:03:14.571Z,58.90
2022-09-21T04:05:41.470Z,58.86
2022-09-21T04:08:10.147Z,58.91
2022-09-21T04:10:37.196Z,59.07
2022-09-21T04:13:04.510Z,59.34
2022-09-21T04:15:31.576Z,59.21
2022-09-21T04:17:59.333Z,59.45
2022-09-21T04:20:26.734Z,59.28
2022-09-21T04:22:53.611Z,59.36
2022-09-21T04:25:20.752Z,59.82
2022-09-21T04:27:47.968Z,59.66
2022-09-21T04:30:16.485Z,59.43
2022-09-21T04:32:44.052Z,59.51
2022-09-21T04:35:11.053Z,59.31
2022-09-21T04:37:38.005Z,59.08
2022-09-21T04:40:06.093Z,59.34
2022-09-21T04:42:33.282Z,58.48
2022-09-21T04:45:00.200Z,58.72
2022-09-21T04:47:30.259Z,58.32
2022-09-21T04:49:57.438Z,58.60
2022-09-21T04:52:24.461Z,58.82
2022-09-21T04:54:51.338Z,58.56
2022-09-21T04:57:18.315Z,58.85
2022-09-21T04:59:45.244Z,59.12
2022-09-21T05:02:12.355Z,58.78
2022-09-21T05:04:39.222Z,58.58
2022-09-21T05:07:06.637Z,57.89
2022-09-21T05:09:52.070Z,57.67
2022-09-21T05:12:18.918Z,57.78
2022-09-21T05:14:45.852Z,57.17
2022-09-21T05:17:13.322Z,56.97
2022-09-21T05:19:41.094Z,56.92
2022-09-21T05:22:08.564Z,56.71
2022-09-21T05:24:35.481Z,56.88
2022-09-21T05:27:02.454Z,57.56
2022-09-21T05:29:29.659Z,58.30
2022-09-21T05:31:56.570Z,58.17
2022-09-21T05:34:36.916Z,58.96
2022-09-21T05:37:24.421Z,58.42
2022-09-21T05:39:51.787Z,57.48
2022-09-21T05:42:19.033Z,57.79
2022-09-21T05:44:46.354Z,56.39
2022-09-21T05:47:34.861Z,57.33
2022-09-21T05:50:24.616Z,57.90
2022-09-21T05:53:11.405Z,58.94
2022-09-21T05:56:03.575Z,59.50
2022-09-21T05:59:08.872Z,59.61
2022-09-21T06:01:41.931Z,60.10
2022-09-21T06:04:15.141Z,59.48
2022-09-21T06:06:42.025Z,58.57
2022-09-21T06:09:08.928Z,59.28
2022-09-21T06:11:36.545Z,59.65
2022-09-21T06:14:03.413Z,59.53
2022-09-21T06:16:43.575Z,59.04
2022-09-21T06:19:13.376Z,59.50
2022-09-21T06:21:40.359Z,59.17
2022-09-21T06:24:07.378Z,59.74
2022-09-21T06:26:34.290Z,59.85
2022-09-21T06:29:01.309Z,59.92
2022-09-21T06:31:28.239Z,58.98
2022-09-21T06:33:55.291Z,58.80
2022-09-21T06:36:22.288Z,54.69
2022-09-21T06:38:49.191Z,56.69
2022-09-21T06:41:20.858Z,56.68
2022-09-21T06:43:48.393Z,55.98
2022-09-21T06:46:15.417Z,57.69
2022-09-21T06:48:42.381Z,55.92
2022-09-21T06:51:10.104Z,55.84
2022-09-21T06:53:37.263Z,55.97
2022-09-21T06:56:08.881Z,55.90
2022-09-21T06:58:37.905Z,55.18
2022-09-21T07:01:09.615Z,55.56
2022-09-21T07:03:37.423Z,56.40
2022-09-21T07:06:05.510Z,53.53
2022-09-21T07:11:21.154Z,51.40
2022-09-21T07:13:48.071Z,53.49
2022-09-21T07:16:15.083Z,54.24
2022-09-21T07:18:44.034Z,54.43
2022-09-21T07:21:12.051Z,54.89
2022-09-21T07:23:39.274Z,55.42
2022-09-21T07:26:14.017Z,54.48
2022-09-21T07:28:41.489Z,54.37
2022-09-21T07:31:11.082Z,50.13
2022-09-21T07:33:38.438Z,53.16
2022-09-21T07:36:10.570Z,51.60
2022-09-21T07:38:39.952Z,54.16
2022-09-21T07:41:08.414Z,54.55
2022-09-21T07:43:35.626Z,50.80
2022-09-21T07:46:02.633Z,50.38
2022-09-21T07:48:30.538Z,49.99
2022-09-21T07:51:05.065Z,52.33
2022-09-21T07:53:33.676Z,54.09
2022-09-21T07:56:08.486Z,55.19
2022-09-21T07:58:55.202Z,52.57
2022-09-21T08:01:22.990Z,51.70
2022-09-21T08:03:51.128Z,53.18
2022-09-21T08:06:19.263Z,53.74
2022-09-21T08:08:48.130Z,51.87
2022-09-21T08:11:28.314Z,54.02
2022-09-21T08:13:57.746Z,53.99
2022-09-21T08:16:25.729Z,53.94
2022-09-21T08:18:53.149Z,52.40
2022-09-21T08:21:20.675Z,53.43
2022-09-21T08:23:50.888Z,50.95
2022-09-21T08:26:19.852Z,52.08
2022-09-21T08:28:51.230Z,50.96
2022-09-21T08:31:21.086Z,48.66
2022-09-21T08:33:50.037Z,50.11
2022-09-21T08:36:18.325Z,49.37
2022-09-21T08:38:45.695Z,50.47
2022-09-21T08:41:43.467Z,49.56
2022-09-21T08:44:14.289Z,50.42
2022-09-21T08:46:43.563Z,51.30
2022-09-21T08:49:19.738Z,51.76
2022-09-21T08:52:03.439Z,50.85
2022-09-21T08:54:42.457Z,47.45
2022-09-21T08:57:14.023Z,48.55
2022-09-21T08:59:50.598Z,52.51
2022-09-21T09:02:45.208Z,52.36
2022-09-21T09:05:19.632Z,50.79
2022-09-21T09:08:08.522Z,52.65
2022-09-21T09:10:53.839Z,52.79
2022-09-21T09:13:44.227Z,51.86
2022-09-21T09:16:29.825Z,51.01
2022-09-21T09:19:35.661Z,50.75
2022-09-21T09:22:07.101Z,50.24
2022-09-21T09:24:41.932Z,50.34
2022-09-21T09:27:24.006Z,51.06
2022-09-21T09:30:04.048Z,50.37
2022-09-21T09:32:45.695Z,50.90
2022-09-21T09:35:26.502Z,49.29
2022-09-21T09:37:59.742Z,50.47
2022-09-21T09:40:59.243Z,50.24
2022-09-21T09:43:41.867Z,49.97
2022-09-21T09:46:18.240Z,49.49
2022-09-21T09:49:06.479Z,49.56
2022-09-21T09:51:36.817Z,50.62
2022-09-21T09:54:05.841Z,49.90
2022-09-21T09:56:36.534Z,48.30
2022-09-21T09:59:10.880Z,49.16
2022-09-21T10:01:44.728Z,50.29
2022-09-21T10:04:14.954Z,50.77
2022-09-21T10:06:46.441Z,51.74
2022-09-21T10:09:32.152Z,50.68
2022-09-21T10:12:05.783Z,51.71
2022-09-21T10:14:36.542Z,51.96
2022-09-21T10:17:08.149Z,50.64
2022-09-21T10:19:35.421Z,50.90
2022-09-21T10:22:05.249Z,49.88
2022-09-21T10:24:37.538Z,50.35
2022-09-21T10:27:12.525Z,49.63
2022-09-21T10:29:41.340Z,49.53
2022-09-21T10:32:15.095Z,49.77
2022-09-21T10:35:08.230Z,49.92
2022-09-21T10:37:40.258Z,49.70
2022-09-21T10:40:24.554Z,50.42
2022-09-21T10:42:56.504Z,50.77
2022-09-21T10:45:28.290Z,49.90
2022-09-21T10:48:08.547Z,50.83
2022-09-21T10:50:40.250Z,50.78
2022-09-21T10:53:09.808Z,49.57
2022-09-21T10:56:11.984Z,50.65
2022-09-21T10:59:21.648Z,50.41
2022-09-21T11:01:54.918Z,48.78
2022-09-21T11:04:31.605Z,49.16
2022-09-21T11:07:10.735Z,49.86
2022-09-21T11:10:15.953Z,49.26
2022-09-21T11:12:55.597Z,49.05
2022-09-21T11:15:51.522Z,48.26
2022-09-21T11:18:33.673Z,49.05
2022-09-21T11:21:14.879Z,49.33
2022-09-21T11:23:51.737Z,48.65
2022-09-21T11:26:33.204Z,47.93
2022-09-21T11:29:10.896Z,46.32
2022-09-21T11:31:49.956Z,46.45
2022-09-21T11:34:44.571Z,47.05
2022-09-21T11:38:10.348Z,47.21
2022-09-21T11:41:02.700Z,48.49
2022-09-21T11:43:43.087Z,48.26
2022-09-21T11:46:38.687Z,48.76
2022-09-21T11:49:27.931Z,48.71
2022-09-21T11:51:59.417Z,48.47
2022-09-21T11:54:35.436Z,48.57
2022-09-21T11:57:24.370Z,48.97
2022-09-21T12:00:00.505Z,49.97
2022-09-21T12:02:52.330Z,49.94
2022-09-21T12:05:22.988Z,50.60
2022-09-21T12:08:21.509Z,51.11
2022-09-21T12:11:06.491Z,48.63
2022-09-21T12:13:41.264Z,49.23
2022-09-21T12:16:19.554Z,49.07
2022-09-21T12:18:48.339Z,49.02
2022-09-21T12:21:25.874Z,51.15
2022-09-21T12:23:56.858Z,52.39
2022-09-21T12:26:30.017Z,52.31
2022-09-21T12:29:15.031Z,52.94
2022-09-21T12:31:58.488Z,53.05
2022-09-21T12:34:32.204Z,50.86
2022-09-21T12:37:07.806Z,53.20
2022-09-21T12:39:51.691Z,52.56
2022-09-21T12:42:41.770Z,54.05
2022-09-21T12:45:33.186Z,53.12
2022-09-21T12:48:02.945Z,51.50
2022-09-21T12:50:29.843Z,53.23
2022-09-21T12:52:57.587Z,51.86
2022-09-21T12:55:48.948Z,53.85
2022-09-21T12:58:16.482Z,54.46
2022-09-21T13:01:04.910Z,54.71
2022-09-21T13:03:38.010Z,55.87
2022-09-21T13:06:15.866Z,55.69
2022-09-21T13:08:47.028Z,54.15
2022-09-21T13:11:21.075Z,55.00
2022-09-21T13:13:58.410Z,55.97
2022-09-21T13:16:35.536Z,55.81
2022-09-21T13:19:21.938Z,55.80
2022-09-21T13:22:22.908Z,55.24
2022-09-21T13:25:06.423Z,55.57
2022-09-21T13:28:09.315Z,54.02
2022-09-21T13:30:43.381Z,54.14
2022-09-21T13:33:19.340Z,54.53
2022-09-21T13:36:02.417Z,54.72
2022-09-21T13:38:41.327Z,54.58
2022-09-21T13:41:17.569Z,55.11
2022-09-21T13:44:01.136Z,55.92
2022-09-21T13:46:37.290Z,55.65
2022-09-21T13:49:10.693Z,56.21
2022-09-21T13:52:01.147Z,55.24
2022-09-21T13:54:36.219Z,55.45
2022-09-21T13:57:18.974Z,56.53
2022-09-21T13:59:49.458Z,56.40
2022-09-21T14:02:35.315Z,55.74
2022-09-21T14:05:10.621Z,56.36
2022-09-21T14:10:10.183Z,54.75
2022-09-21T14:12:45.785Z,54.82
2022-09-21T14:15:19.535Z,55.75
2022-09-21T14:18:15.815Z,56.80
2022-09-21T14:21:08.279Z,57.96
2022-09-21T14:23:37.416Z,59.34
2022-09-21T14:26:39.638Z,59.39
2022-09-21T14:29:25.447Z,58.72
2022-09-21T14:31:57.520Z,58.72
2022-09-21T14:34:29.372Z,58.99
2022-09-21T14:36:59.912Z,59.61
2022-09-21T14:39:32.168Z,59.14
2022-09-21T14:42:12.539Z,57.78
2022-09-21T14:44:42.657Z,57.63
2022-09-21T14:47:18.105Z,57.34
2022-09-21T14:50:07.448Z,57.63
2022-09-21T14:53:01.903Z,58.36
2022-09-21T14:55:40.451Z,58.12
2022-09-21T14:58:32.187Z,58.33
2022-09-21T15:01:26.117Z,57.98
2022-09-21T15:04:11.992Z,57.38
2022-09-21T15:07:08.480Z,57.68
2022-09-21T15:10:12.450Z,56.93
2022-09-21T15:12:58.191Z,57.21
2022-09-21T15:15:41.482Z,57.76
2022-09-21T15:18:20.814Z,56.46
2022-09-21T15:21:03.648Z,56.23
2022-09-21T15:23:39.371Z,55.78
2022-09-21T15:26:24.128Z,56.11
2022-09-21T15:29:10.880Z,56.29
2022-09-21T15:31:40.081Z,57.94
2022-09-21T15:34:09.138Z,58.79
2022-09-21T15:36:39.931Z,58.83
2022-09-21T15:39:07.536Z,59.10
2022-09-21T15:41:39.705Z,59.32
2022-09-21T15:44:21.794Z,59.29
2022-09-21T15:46:58.022Z,59.78
2022-09-21T15:49:25.066Z,59.95
2022-09-21T15:52:03.005Z,60.28
2022-09-21T15:54:36.907Z,58.99
2022-09-21T15:57:24.192Z,59.08
2022-09-21T15:59:51.682Z,58.77
2022-09-21T16:02:25.513Z,59.21
2022-09-21T16:04:52.921Z,59.75
2022-09-21T16:07:35.381Z,59.59
2022-09-21T16:10:24.179Z,59.02
2022-09-21T16:12:51.232Z,58.69
2022-09-21T16:15:30.308Z,57.58
2022-09-21T16:18:07.092Z,57.47
2022-09-21T16:20:43.950Z,56.13
2022-09-21T16:23:17.155Z,56.50
2022-09-21T16:25:44.758Z,56.64
2022-09-21T16:28:15.521Z,56.90
2022-09-21T16:30:47.314Z,56.12
2022-09-21T16:33:32.675Z,56.05
2022-09-21T16:36:00.341Z,56.35
2022-09-21T16:38:27.454Z,56.69
2022-09-21T16:40:54.918Z,56.08
2022-09-21T16:43:24.376Z,55.84
2022-09-21T16:45:51.745Z,56.07
2022-09-21T16:48:19.244Z,55.46
2022-09-21T16:50:46.565Z,55.63
2022-09-21T16:53:13.495Z,55.63
2022-09-21T16:55:43.369Z,55.94
2022-09-21T16:58:10.379Z,55.60
2022-09-21T17:00:42.094Z,55.95
2022-09-21T17:03:09.039Z,56.60
2022-09-21T17:05:36.007Z,56.56
2022-09-21T17:08:03.148Z,56.86
2022-09-21T17:10:44.889Z,56.86
2022-09-21T17:13:14.749Z,57.13
2022-09-21T17:15:47.318Z,57.52
2022-09-21T17:18:14.691Z,58.37
2022-09-21T17:20:43.881Z,58.49
2022-09-21T17:23:11.863Z,58.36
2022-09-21T17:25:38.860Z,58.68
2022-09-21T17:28:14.573Z,58.80
2022-09-21T17:30:42.671Z,58.49
2022-09-21T17:33:10.880Z,57.92
2022-09-21T17:35:40.335Z,58.10
2022-09-21T17:38:12.437Z,57.41
2022-09-21T17:40:42.717Z,57.60
2022-09-21T17:43:50.303Z,57.25
2022-09-21T17:46:23.982Z,57.44
2022-09-21T17:48:51.229Z,57.09
2022-09-21T17:51:38.348Z,57.23
2022-09-21T17:54:05.755Z,57.05
2022-09-21T17:56:59.180Z,57.02
2022-09-21T17:59:33.920Z,57.42
2022-09-21T18:02:02.245Z,56.93
2022-09-21T18:04:31.330Z,57.50
2022-09-21T18:06:59.419Z,57.96
2022-09-21T18:09:26.668Z,58.36
2022-09-21T18:12:24.166Z,58.45
2022-09-21T18:15:18.814Z,58.22
2022-09-21T18:18:06.782Z,58.27
2022-09-21T18:21:06.171Z,57.89
2022-09-21T18:23:46.812Z,57.83
2022-09-21T18:26:16.563Z,58.07
2022-09-21T18:28:57.087Z,58.22
2022-09-21T18:31:56.133Z,57.89
2022-09-21T18:34:54.871Z,58.23
2022-09-21T18:37:27.176Z,58.40
2022-09-21T18:40:22.187Z,57.91
2022-09-21T18:42:59.182Z,58.04
2022-09-21T18:45:31.974Z,57.95
2022-09-21T18:48:36.361Z,57.98
2022-09-21T18:51:21.835Z,58.11
2022-09-21T18:53:56.051Z,56.44
2022-09-21T18:56:25.009Z,57.24
2022-09-21T18:58:52.494Z,56.19
2022-09-21T19:01:22.199Z,56.88
2022-09-21T19:03:50.038Z,56.76
2022-09-21T19:07:10.906Z,57.64
2022-09-21T19:10:05.449Z,57.84
2022-09-21T19:12:44.262Z,56.60
2022-09-21T19:15:58.694Z,56.83
2022-09-21T19:19:17.813Z,57.00
2022-09-21T19:22:12.141Z,56.84
2022-09-21T19:24:56.131Z,56.84
2022-09-21T19:27:29.992Z,56.60
2022-09-21T19:30:06.681Z,57.00
2022-09-21T19:32:36.523Z,57.21
2022-09-21T19:35:33.720Z,57.05
2022-09-21T19:38:03.530Z,57.31
2022-09-21T19:40:33.786Z,57.15
2022-09-21T19:43:28.538Z,57.47
2022-09-21T19:46:05.206Z,57.33
2022-09-21T19:49:01.592Z,57.07
2022-09-21T19:51:40.437Z,56.79
2022-09-21T19:54:34.939Z,57.35
2022-09-21T19:57:21.050Z,57.40
2022-09-21T19:59:49.745Z,57.40
2022-09-21T20:02:28.761Z,58.05
2022-09-21T20:04:58.355Z,58.30
2022-09-21T20:07:53.337Z,58.24
2022-09-21T20:10:22.997Z,58.64
2022-09-21T20:12:59.583Z,58.42
2022-09-21T20:15:47.241Z,58.54
2022-09-21T20:18:54.037Z,58.93
2022-09-21T20:21:22.417Z,58.38
2022-09-21T20:23:59.445Z,58.21
2022-09-21T20:26:27.777Z,58.25
2022-09-21T20:28:55.340Z,58.53
2022-09-21T20:31:25.116Z,58.90
2022-09-21T20:33:52.192Z,59.15
2022-09-21T20:36:19.097Z,58.98
2022-09-21T20:38:45.991Z,59.36
2022-09-21T20:41:15.586Z,59.39
2022-09-21T20:43:43.346Z,59.26
2022-09-21T20:46:11.211Z,58.98
2022-09-21T20:48:38.511Z,59.21
2022-09-21T20:51:06.308Z,59.62
2022-09-21T20:53:34.434Z,59.88
2022-09-21T20:56:02.112Z,60.02
2022-09-21T20:58:34.129Z,60.04
2022-09-21T21:01:08.856Z,59.83
2022-09-21T21:03:35.711Z,59.62
2022-09-21T21:06:13.986Z,59.09
2022-09-21T21:08:41.170Z,59.62
2022-09-21T21:11:08.115Z,59.36
2022-09-21T21:13:34.977Z,59.31
2022-09-21T21:16:08.166Z,59.59
2022-09-21T21:18:42.131Z,59.10
2022-09-21T21:21:09.577Z,58.95
2022-09-21T21:23:57.053Z,58.84
2022-09-21T21:26:43.837Z,59.31
2022-09-21T21:29:12.484Z,59.35
2022-09-21T21:31:40.152Z,59.46
2022-09-21T21:34:07.165Z,59.99
2022-09-21T21:36:34.250Z,59.92
2022-09-21T21:39:01.156Z,59.71
2022-09-21T21:41:28.181Z,59.18
2022-09-21T21:43:55.123Z,58.67
2022-09-21T21:46:22.700Z,59.36
2022-09-21T21:48:49.782Z,59.53
2022-09-21T21:51:16.726Z,58.86
2022-09-21T21:53:44.720Z,58.93
2022-09-21T21:56:16.729Z,58.74
2022-09-21T21:58:44.123Z,59.02
2022-09-21T22:01:21.678Z,59.29
2022-09-21T22:03:53.922Z,59.67
2022-09-21T22:06:21.145Z,59.72
2022-09-21T22:08:48.404Z,59.17
2022-09-21T22:11:17.531Z,58.86
2022-09-21T22:13:45.536Z,58.20
2022-09-21T22:16:17.714Z,59.02
2022-09-21T22:18:46.396Z,59.22
2022-09-21T22:21:17.849Z,58.68
2022-09-21T22:23:44.701Z,58.85
2022-09-21T22:26:14.096Z,58.37
2022-09-21T22:28:43.560Z,58.35
2022-09-21T22:31:16.365Z,58.60
2022-09-21T22:33:43.953Z,58.53
2022-09-21T22:36:13.330Z,58.48
2022-09-21T22:38:43.085Z,58.36
2022-09-21T22:41:43.082Z,58.47
2022-09-21T22:44:11.147Z,58.62
2022-09-21T22:46:38.885Z,59.09
2022-09-21T22:49:06.230Z,58.91
2022-09-21T22:51:33.851Z,59.29
2022-09-21T22:54:01.842Z,59.24
2022-09-21T22:56:31.070Z,59.53
2022-09-21T22:59:00.391Z,59.28
2022-09-21T23:01:37.128Z,59.58
2022-09-21T23:04:13.392Z,59.80
2022-09-21T23:06:43.495Z,59.43
2022-09-21T23:09:18.006Z,59.29
2022-09-21T23:11:48.129Z,59.88
2022-09-21T23:14:16.518Z,59.81
2022-09-21T23:16:43.572Z,59.18
2022-09-21T23:19:15.815Z,59.74
2022-09-21T23:21:46.670Z,60.12
2022-09-21T23:24:13.647Z,60.24
2022-09-21T23:26:40.561Z,60.15
2022-09-21T23:29:12.690Z,60.08
2022-09-21T23:31:44.472Z,59.88
2022-09-21T23:34:12.849Z,59.94
2022-09-21T23:36:40.817Z,60.17
2022-09-21T23:39:11.733Z,60.33
2022-09-21T23:41:39.081Z,60.48
2022-09-21T23:44:06.523Z,60.67
2022-09-21T23:46:36.392Z,60.92
2022-09-21T23:49:04.268Z,61.10
2022-09-21T23:51:32.026Z,61.16
2022-09-21T23:53:59.787Z,61.28
2022-09-21T23:56:27.317Z,60.79
2022-09-21T23:58:54.705Z,60.68
